Time;durP1;ratioP1;P1;durP2;ratioP2;P2;SDS_P1;SDS_P2;PMS_P1;PMS_P2;Temp;Humidity;BMP_temperature;BMP_pressure;BME280_temperature;BME280_humidity;BME280_pressure;Samples;Min_cycle;Max_cycle;Signal;HPM_P1;HPM_P2
2021/07/25 00:00:09;;;;;;;0.50;0.40;;;18.00;99.90;;;;;;5101263;28;20493;-79
2021/07/25 00:02:36;;;;;;;1.03;1.03;;;18.00;99.90;;;;;;5101124;28;20443;-83
2021/07/25 00:05:03;;;;;;;6.93;6.33;;;17.90;99.90;;;;;;5100602;28;20511;-84
2021/07/25 00:07:30;;;;;;;2.40;2.23;;;17.90;99.90;;;;;;5100876;28;20435;-84
2021/07/25 00:09:57;;;;;;;1.23;1.23;;;17.90;99.90;;;;;;5101242;28;20443;-85
2021/07/25 00:12:25;;;;;;;0.60;0.60;;;17.90;99.90;;;;;;5100469;28;20475;-84
2021/07/25 00:14:52;;;;;;;3.23;3.13;;;17.90;99.90;;;;;;5100920;28;20423;-84
2021/07/25 00:17:19;;;;;;;5.67;3.93;;;17.90;99.90;;;;;;5100705;28;20440;-83
2021/07/25 00:19:45;;;;;;;0.77;0.73;;;17.90;99.90;;;;;;5101396;28;20544;-84
2021/07/25 00:22:13;;;;;;;9.20;5.77;;;17.80;99.90;;;;;;5099693;28;20432;-84
2021/07/25 00:24:48;;;;;;;1.03;0.97;;;17.90;99.90;;;;;;5101094;28;20439;-84
2021/07/25 00:27:19;;;;;;;0.90;0.83;;;17.80;99.90;;;;;;5101487;28;20431;-84
2021/07/25 00:29:47;;;;;;;3.17;2.77;;;17.80;99.90;;;;;;5100825;28;20420;-83
2021/07/25 00:32:15;;;;;;;5.87;5.33;;;17.80;99.90;;;;;;5100747;28;20475;-83
2021/07/25 00:34:41;;;;;;;0.90;0.90;;;17.70;99.90;;;;;;5100518;28;20446;-83
2021/07/25 00:37:09;;;;;;;2.60;1.00;;;17.70;99.90;;;;;;5099976;28;20451;-83
2021/07/25 00:39:35;;;;;;;1.57;1.30;;;17.70;99.90;;;;;;5100272;28;20466;-83
2021/07/25 00:42:04;;;;;;;3.70;3.40;;;17.70;99.90;;;;;;5099605;28;20443;-83
2021/07/25 00:44:31;;;;;;;1.17;1.13;;;17.60;99.90;;;;;;5100291;28;20549;-83
2021/07/25 00:47:01;;;;;;;0.90;0.90;;;17.60;99.90;;;;;;5099908;28;20817;-84
2021/07/25 00:49:29;;;;;;;1.60;1.50;;;17.50;99.90;;;;;;5099539;28;20469;-83
2021/07/25 00:51:58;;;;;;;10.60;4.07;;;17.60;99.90;;;;;;5100028;28;21022;-84
2021/07/25 00:54:25;;;;;;;0.50;0.30;;;17.60;99.90;;;;;;5098712;28;20499;-81
2021/07/25 00:56:52;;;;;;;4.73;3.73;;;17.60;99.90;;;;;;5099503;28;20435;-84
2021/07/25 00:59:19;;;;;;;1.53;1.43;;;17.50;99.90;;;;;;5099859;28;20459;-83
2021/07/25 01:01:49;;;;;;;4.90;3.43;;;17.50;99.90;;;;;;5099013;28;20428;-84
2021/07/25 01:04:32;;;;;;;17.37;5.50;;;17.50;99.90;;;;;;5100111;28;20869;-82
2021/07/25 01:07:06;;;;;;;2.70;1.70;;;17.50;99.90;;;;;;5099564;28;20446;-84
2021/07/25 01:09:41;;;;;;;4.43;4.17;;;17.50;99.90;;;;;;5100920;28;20474;-84
2021/07/25 01:12:17;;;;;;;1.17;0.80;;;17.60;99.90;;;;;;5099046;28;20475;-84
2021/07/25 01:14:45;;;;;;;9.03;3.43;;;17.60;99.90;;;;;;5104325;28;20424;-82
2021/07/25 01:17:25;;;;;;;2.00;1.90;;;17.60;99.90;;;;;;5114051;28;20428;-82
2021/07/25 01:19:53;;;;;;;0.70;0.70;;;17.60;99.90;;;;;;5114912;28;20469;-82
2021/07/25 01:22:20;;;;;;;2.90;2.80;;;17.50;99.90;;;;;;5113908;28;20433;-82
2021/07/25 01:24:47;;;;;;;1.77;1.67;;;17.60;99.90;;;;;;5102256;28;20443;-82
2021/07/25 01:27:21;;;;;;;6.90;6.20;;;17.60;99.90;;;;;;5100348;28;20444;-83
2021/07/25 01:29:50;;;;;;;2.83;2.73;;;17.60;99.90;;;;;;5099751;28;20412;-83
2021/07/25 01:32:17;;;;;;;2.17;1.97;;;17.60;99.90;;;;;;5099834;28;20468;-84
2021/07/25 01:34:45;;;;;;;2.00;1.90;;;17.70;99.90;;;;;;5099450;28;20435;-82
2021/07/25 01:37:14;;;;;;;2.40;1.53;;;17.70;99.90;;;;;;5098403;28;20440;-82
2021/07/25 01:39:41;;;;;;;0.97;0.97;;;17.70;99.90;;;;;;5098549;28;20427;-84
2021/07/25 01:42:08;;;;;;;1.07;1.07;;;17.70;99.90;;;;;;5098455;28;20435;-84
2021/07/25 01:44:35;;;;;;;6.27;5.40;;;17.70;99.90;;;;;;5099046;28;20435;-83
2021/07/25 01:47:02;;;;;;;1.23;1.13;;;17.60;99.90;;;;;;5099288;28;20432;-84
2021/07/25 01:49:29;;;;;;;0.93;0.93;;;17.70;99.90;;;;;;5098984;28;20454;-83
2021/07/25 01:51:55;;;;;;;2.50;1.90;;;17.70;99.90;;;;;;5098598;28;20472;-84
2021/07/25 01:54:23;;;;;;;4.43;4.07;;;17.60;99.90;;;;;;5098068;28;20440;-84
2021/07/25 01:56:50;;;;;;;0.50;0.30;;;17.60;99.90;;;;;;5098627;28;20939;-85
2021/07/25 01:59:17;;;;;;;0.63;0.63;;;17.60;99.90;;;;;;5098221;28;20456;-84
2021/07/25 02:01:43;;;;;;;1.90;0.97;;;17.60;99.90;;;;;;5098661;28;20431;-83
2021/07/25 02:04:10;;;;;;;5.20;3.00;;;17.60;99.90;;;;;;5098218;28;20435;-84
2021/07/25 02:06:37;;;;;;;0.60;0.60;;;17.50;99.90;;;;;;5098469;28;20439;-80
2021/07/25 02:09:03;;;;;;;3.27;1.17;;;17.50;99.90;;;;;;5098179;28;20471;-84
2021/07/25 02:11:32;;;;;;;2.57;1.63;;;17.50;99.90;;;;;;5098376;28;20483;-83
2021/07/25 02:13:58;;;;;;;0.50;0.30;;;17.50;99.90;;;;;;5098036;28;20443;-83
2021/07/25 02:16:25;;;;;;;0.60;0.30;;;17.50;99.90;;;;;;5097398;28;20943;-83
2021/07/25 02:18:52;;;;;;;0.50;0.30;;;17.40;99.90;;;;;;5098526;28;20460;-84
2021/07/25 02:21:18;;;;;;;4.30;3.90;;;17.40;99.90;;;;;;5098463;28;20697;-84
2021/07/25 02:23:46;;;;;;;1.00;0.50;;;17.40;99.90;;;;;;5097446;28;20446;-83
2021/07/25 02:26:12;;;;;;;1.27;1.27;;;17.40;99.90;;;;;;5098180;28;21017;-84
2021/07/25 02:28:40;;;;;;;0.50;0.40;;;17.40;99.90;;;;;;5098073;28;20456;-83
2021/07/25 02:31:07;;;;;;;5.60;4.10;;;17.40;99.90;;;;;;5097449;28;20857;-84
2021/07/25 02:33:34;;;;;;;5.93;3.87;;;17.40;99.90;;;;;;5098088;28;20444;-83
2021/07/25 02:36:01;;;;;;;1.93;1.37;;;17.40;99.90;;;;;;5097946;28;20442;-84
2021/07/25 02:38:27;;;;;;;2.27;2.17;;;17.30;99.90;;;;;;5097494;28;20467;-84
2021/07/25 02:40:54;;;;;;;1.20;0.67;;;17.30;99.90;;;;;;5097064;28;20439;-83
2021/07/25 02:43:21;;;;;;;0.50;0.40;;;17.30;99.90;;;;;;5098075;28;20438;-83
2021/07/25 02:45:49;;;;;;;1.60;1.50;;;17.30;99.90;;;;;;5097699;28;20447;-84
2021/07/25 02:48:16;;;;;;;0.63;0.63;;;17.30;99.90;;;;;;5098102;28;20495;-84
2021/07/25 02:50:43;;;;;;;0.50;0.30;;;17.30;99.90;;;;;;5096942;28;20440;-83
2021/07/25 02:53:10;;;;;;;0.57;0.40;;;17.20;99.90;;;;;;5097651;28;20475;-84
2021/07/25 02:55:36;;;;;;;0.50;0.30;;;17.20;99.90;;;;;;5097639;28;20937;-83
2021/07/25 02:58:03;;;;;;;4.13;3.80;;;17.20;99.90;;;;;;5097592;28;20455;-83
2021/07/25 03:00:30;;;;;;;3.10;2.80;;;17.20;99.90;;;;;;5096939;28;20805;-83
2021/07/25 03:02:58;;;;;;;0.50;0.30;;;17.20;99.90;;;;;;5097758;28;20435;-82
2021/07/25 03:05:25;;;;;;;0.87;0.87;;;17.20;99.90;;;;;;5101924;28;20435;-81
2021/07/25 03:07:52;;;;;;;0.50;0.37;;;17.10;99.90;;;;;;5102498;28;21005;-84
2021/07/25 03:10:19;;;;;;;0.50;0.40;;;17.10;99.90;;;;;;5096942;28;20454;-84
2021/07/25 03:12:46;;;;;;;1.43;1.27;;;17.10;99.90;;;;;;5097648;28;20464;-84
2021/07/25 03:15:12;;;;;;;4.73;4.40;;;17.10;99.90;;;;;;5098920;28;20556;-83
2021/07/25 03:17:39;;;;;;;0.50;0.30;;;17.00;99.90;;;;;;5099604;28;20471;-84
2021/07/25 03:20:08;;;;;;;4.03;3.73;;;17.00;99.90;;;;;;5100724;28;20442;-80
2021/07/25 03:22:36;;;;;;;1.50;1.50;;;17.10;99.90;;;;;;5103158;28;20486;-83
2021/07/25 03:25:03;;;;;;;2.30;1.27;;;17.00;99.90;;;;;;5093699;28;20451;-83
2021/07/25 03:27:29;;;;;;;0.50;0.30;;;17.10;99.90;;;;;;5094285;28;20443;-82
2021/07/25 03:29:56;;;;;;;1.43;1.10;;;17.10;99.90;;;;;;5093223;28;20443;-83
2021/07/25 03:32:23;;;;;;;3.07;2.97;;;17.10;99.90;;;;;;5093283;28;20475;-83
2021/07/25 03:34:50;;;;;;;0.50;0.40;;;17.10;99.90;;;;;;5093774;28;20436;-83
2021/07/25 03:37:19;;;;;;;0.73;0.73;;;17.10;99.90;;;;;;5093320;28;20501;-82
2021/07/25 03:39:47;;;;;;;1.10;0.70;;;17.10;99.90;;;;;;5093486;28;20482;-83
2021/07/25 03:42:15;;;;;;;0.50;0.30;;;17.10;99.90;;;;;;5093420;28;20589;-83
2021/07/25 03:44:42;;;;;;;1.67;1.57;;;17.00;99.90;;;;;;5093750;28;20443;-83
2021/07/25 03:47:10;;;;;;;0.60;0.53;;;17.00;99.90;;;;;;5099984;28;20925;-83
2021/07/25 03:49:38;;;;;;;10.40;3.47;;;17.00;99.90;;;;;;5103244;28;20459;-83
2021/07/25 03:52:06;;;;;;;5.20;2.30;;;17.10;99.90;;;;;;5100983;28;20478;-83
2021/07/25 03:54:36;;;;;;;0.97;0.97;;;17.00;99.90;;;;;;5095097;28;20439;-81
2021/07/25 03:57:03;;;;;;;0.50;0.40;;;17.00;99.90;;;;;;5093016;28;20907;-83
2021/07/25 03:59:30;;;;;;;0.50;0.30;;;17.00;99.90;;;;;;5093333;28;20460;-83
2021/07/25 04:01:56;;;;;;;2.80;2.43;;;17.00;99.90;;;;;;5092227;28;20435;-83
2021/07/25 04:04:23;;;;;;;0.50;0.30;;;17.00;99.90;;;;;;5092753;28;21036;-83
2021/07/25 04:06:50;;;;;;;1.57;1.47;;;17.00;99.90;;;;;;5092781;28;20442;-83
2021/07/25 04:09:17;;;;;;;0.50;0.37;;;17.00;99.90;;;;;;5093309;28;20477;-83
2021/07/25 04:11:45;;;;;;;1.83;1.27;;;17.00;99.90;;;;;;5092805;28;20472;-82
2021/07/25 04:14:11;;;;;;;0.50;0.30;;;17.00;99.90;;;;;;5093380;28;20444;-82
2021/07/25 04:16:38;;;;;;;2.13;1.73;;;17.00;99.90;;;;;;5093050;28;20439;-80
2021/07/25 04:19:05;;;;;;;0.50;0.30;;;17.00;99.90;;;;;;5093505;28;20460;-83
2021/07/25 04:21:31;;;;;;;0.50;0.30;;;17.00;99.90;;;;;;5093784;28;20440;-83
2021/07/25 04:23:58;;;;;;;0.50;0.43;;;17.10;99.90;;;;;;5094158;28;20439;-82
2021/07/25 04:26:25;;;;;;;0.43;0.30;;;17.10;99.90;;;;;;5094305;28;20796;-83
2021/07/25 04:28:54;;;;;;;2.97;2.00;;;17.10;99.90;;;;;;5094751;28;21021;-83
2021/07/25 04:31:21;;;;;;;0.50;0.37;;;17.10;99.90;;;;;;5096438;28;20651;-83
2021/07/25 04:33:51;;;;;;;0.50;0.40;;;17.10;99.90;;;;;;5097032;28;20419;-83
2021/07/25 04:36:24;;;;;;;5.43;2.73;;;17.20;99.90;;;;;;5096886;28;20435;-79
2021/07/25 04:38:52;;;;;;;0.50;0.30;;;17.20;99.90;;;;;;5095912;28;20448;-82
2021/07/25 04:41:22;;;;;;;0.73;0.73;;;17.20;99.90;;;;;;5096426;28;20431;-82
2021/07/25 04:44:05;;;;;;;4.43;1.97;;;17.30;99.90;;;;;;5096693;28;20431;-82
2021/07/25 04:46:34;;;;;;;0.90;0.80;;;17.30;99.90;;;;;;5096668;28;20800;-82
2021/07/25 04:49:06;;;;;;;1.70;1.07;;;17.30;99.90;;;;;;5096416;28;20459;-83
2021/07/25 04:51:36;;;;;;;0.67;0.53;;;17.30;99.90;;;;;;5095807;28;20443;-82
2021/07/25 04:54:08;;;;;;;1.73;1.63;;;17.40;99.90;;;;;;5095640;28;20450;-82
2021/07/25 04:56:40;;;;;;;0.50;0.50;;;17.40;99.90;;;;;;5096436;28;20435;-83
2021/07/25 04:59:15;;;;;;;0.50;0.40;;;17.40;99.90;;;;;;5096322;28;20452;-82
2021/07/25 05:01:46;;;;;;;1.20;1.20;;;17.40;99.90;;;;;;5095535;28;20431;-82
2021/07/25 05:04:14;;;;;;;0.50;0.30;;;17.50;99.90;;;;;;5096743;28;20447;-82
2021/07/25 05:06:41;;;;;;;0.83;0.83;;;17.50;99.90;;;;;;5096355;28;20452;-83
2021/07/25 05:09:09;;;;;;;1.60;1.17;;;17.60;99.90;;;;;;5095306;28;20471;-82
2021/07/25 05:11:43;;;;;;;1.43;1.43;;;17.60;99.90;;;;;;5096293;28;20463;-83
2021/07/25 05:14:22;;;;;;;0.90;0.90;;;17.70;99.90;;;;;;5096358;28;20415;-82
2021/07/25 05:17:01;;;;;;;0.80;0.80;;;17.70;99.90;;;;;;5096277;28;20431;-82
2021/07/25 05:19:35;;;;;;;1.17;1.03;;;17.70;99.90;;;;;;5095750;28;20463;-83
2021/07/25 05:22:11;;;;;;;0.50;0.50;;;17.80;99.90;;;;;;5096291;28;20427;-82
2021/07/25 05:24:44;;;;;;;2.40;1.30;;;17.80;99.90;;;;;;5095642;28;20435;-79
2021/07/25 05:27:17;;;;;;;0.50;0.30;;;17.80;99.90;;;;;;5096309;28;20469;-82
2021/07/25 05:29:47;;;;;;;0.50;0.30;;;17.90;99.90;;;;;;5095600;28;20447;-82
2021/07/25 05:32:14;;;;;;;8.83;1.50;;;17.90;99.90;;;;;;5096019;28;20471;-82
2021/07/25 05:34:40;;;;;;;1.27;1.17;;;18.00;99.90;;;;;;5096006;28;20440;-82
2021/07/25 05:37:07;;;;;;;1.73;1.33;;;18.10;99.90;;;;;;5096349;28;20832;-82
2021/07/25 05:39:34;;;;;;;0.50;0.40;;;18.10;99.90;;;;;;5095405;28;20463;-83
2021/07/25 05:42:01;;;;;;;0.50;0.40;;;18.10;99.90;;;;;;5095875;28;20959;-82
2021/07/25 05:44:30;;;;;;;0.50;0.40;;;18.20;99.90;;;;;;5096034;28;20446;-83
2021/07/25 05:46:59;;;;;;;0.50;0.30;;;18.30;99.90;;;;;;5095585;28;20444;-82
2021/07/25 05:49:25;;;;;;;1.20;1.10;;;18.40;99.90;;;;;;5096849;28;20528;-83
2021/07/25 05:51:52;;;;;;;3.97;2.87;;;18.40;99.90;;;;;;5095314;28;20448;-82
2021/07/25 05:54:19;;;;;;;0.70;0.70;;;18.50;99.90;;;;;;5095646;28;21047;-83
2021/07/25 05:56:46;;;;;;;2.10;1.90;;;18.60;99.90;;;;;;5095632;28;20440;-83
2021/07/25 05:59:12;;;;;;;0.50;0.30;;;18.60;99.90;;;;;;5096081;28;20462;-81
2021/07/25 06:01:39;;;;;;;0.50;0.30;;;18.70;99.90;;;;;;5094949;28;20444;-83
2021/07/25 06:04:08;;;;;;;0.50;0.30;;;18.80;99.90;;;;;;5096820;28;20424;-82
2021/07/25 06:06:35;;;;;;;0.50;0.40;;;18.80;99.90;;;;;;5096361;28;20524;-83
2021/07/25 06:09:03;;;;;;;0.50;0.30;;;19.00;99.90;;;;;;5095882;28;20535;-83
2021/07/25 06:11:30;;;;;;;0.50;0.50;;;19.10;99.90;;;;;;5096303;28;20436;-83
2021/07/25 06:13:57;;;;;;;2.60;0.97;;;19.40;99.90;;;;;;5096124;28;20855;-83
2021/07/25 06:16:24;;;;;;;1.43;1.33;;;20.20;99.90;;;;;;5095990;28;20525;-82
2021/07/25 06:18:51;;;;;;;0.60;0.60;;;21.00;99.90;;;;;;5095661;28;20469;-84
2021/07/25 06:21:19;;;;;;;0.60;0.60;;;22.30;99.90;;;;;;5095812;28;20439;-83
2021/07/25 06:23:47;;;;;;;1.97;1.60;;;23.50;99.90;;;;;;5095855;28;20800;-83
2021/07/25 06:26:14;;;;;;;0.60;0.60;;;24.10;99.90;;;;;;5095851;28;20447;-83
2021/07/25 06:28:41;;;;;;;0.60;0.60;;;24.10;99.90;;;;;;5095645;28;20462;-83
2021/07/25 06:31:08;;;;;;;0.50;0.50;;;24.90;99.90;;;;;;5095310;28;20928;-83
2021/07/25 06:33:35;;;;;;;0.50;0.30;;;25.20;99.90;;;;;;5095712;28;20848;-80
2021/07/25 06:36:04;;;;;;;2.80;1.43;;;26.10;99.90;;;;;;5095653;28;20826;-84
2021/07/25 06:38:32;;;;;;;1.93;1.37;;;27.30;99.90;;;;;;5094982;28;20453;-83
2021/07/25 06:40:59;;;;;;;1.00;0.90;;;27.00;99.90;;;;;;5095487;28;20436;-84
2021/07/25 06:43:26;;;;;;;0.50;0.30;;;27.40;99.90;;;;;;5095579;28;20961;-84
2021/07/25 06:45:52;;;;;;;0.50;0.37;;;28.00;99.90;;;;;;5095190;28;20626;-84
2021/07/25 06:48:21;;;;;;;1.13;0.80;;;28.80;99.90;;;;;;5095418;28;20551;-81
2021/07/25 06:50:49;;;;;;;0.50;0.30;;;29.10;99.90;;;;;;5094836;28;20816;-84
2021/07/25 06:53:16;;;;;;;1.80;1.30;;;29.40;99.90;;;;;;5094360;28;20507;-84
2021/07/25 06:55:44;;;;;;;0.50;0.30;;;29.70;99.90;;;;;;5094194;28;20440;-83
2021/07/25 06:58:11;;;;;;;0.50;0.30;;;29.10;99.90;;;;;;5094963;28;20846;-84
2021/07/25 07:00:38;;;;;;;0.50;0.40;;;29.90;99.90;;;;;;5095234;28;20444;-84
2021/07/25 07:03:05;;;;;;;1.33;1.07;;;30.30;99.90;;;;;;5094956;28;20434;-84
2021/07/25 07:05:33;;;;;;;2.87;1.63;;;30.60;99.90;;;;;;5095035;28;20443;-85
2021/07/25 07:08:02;;;;;;;0.50;0.30;;;30.80;99.90;;;;;;5096031;28;20474;-84
2021/07/25 07:10:32;;;;;;;0.50;0.30;;;31.30;99.90;;;;;;5093697;28;20475;-82
2021/07/25 07:13:03;;;;;;;1.07;0.60;;;32.60;99.90;;;;;;5095016;28;20478;-84
2021/07/25 07:15:30;;;;;;;0.50;0.30;;;32.60;93.40;;;;;;5094823;28;20507;-84
2021/07/25 07:17:59;;;;;;;1.07;0.93;;;32.80;92.40;;;;;;5095029;28;20512;-84
2021/07/25 07:20:26;;;;;;;5.20;0.63;;;32.80;90.10;;;;;;5095177;28;20449;-81
2021/07/25 07:22:54;;;;;;;1.50;1.17;;;32.80;90.30;;;;;;5094142;28;20431;-84
2021/07/25 07:25:22;;;;;;;0.50;0.40;;;32.70;88.60;;;;;;5094742;28;20446;-84
2021/07/25 07:27:49;;;;;;;0.50;0.30;;;32.40;91.40;;;;;;5094854;28;20989;-86
2021/07/25 07:30:18;;;;;;;0.47;0.30;;;32.90;88.80;;;;;;5094074;28;20790;-81
2021/07/25 07:32:45;;;;;;;8.30;2.83;;;33.60;90.60;;;;;;5106228;28;20573;-85
2021/07/25 07:35:12;;;;;;;0.50;0.30;;;33.20;82.80;;;;;;5100326;28;20938;-86
2021/07/25 07:37:39;;;;;;;0.50;0.40;;;33.20;85.30;;;;;;5099458;28;20453;-86
2021/07/25 07:40:07;;;;;;;0.50;0.30;;;33.80;80.80;;;;;;5098998;28;20443;-85
2021/07/25 07:42:34;;;;;;;0.50;0.30;;;33.50;80.70;;;;;;5099061;28;20443;-83
2021/07/25 07:45:01;;;;;;;0.50;0.40;;;33.90;82.70;;;;;;5099734;28;20443;-84
2021/07/25 07:47:29;;;;;;;1.43;0.93;;;34.70;77.80;;;;;;5100155;28;20438;-86
2021/07/25 07:49:56;;;;;;;0.50;0.40;;;35.30;75.20;;;;;;5100038;28;20438;-83
2021/07/25 07:52:22;;;;;;;10.30;0.87;;;35.20;74.30;;;;;;5099058;28;20440;-85
2021/07/25 07:54:49;;;;;;;0.50;0.30;;;35.10;71.80;;;;;;5097652;28;20482;-84
2021/07/25 07:57:17;;;;;;;0.70;0.63;;;34.00;74.50;;;;;;5097286;28;20443;-84
2021/07/25 07:59:44;;;;;;;2.93;0.93;;;34.10;74.30;;;;;;5097736;28;20530;-84
2021/07/25 08:02:10;;;;;;;0.47;0.37;;;34.70;73.00;;;;;;5097125;28;20808;-84
2021/07/25 08:04:38;;;;;;;0.50;0.30;;;34.40;74.90;;;;;;5101019;28;20438;-84
2021/07/25 08:07:05;;;;;;;0.60;0.60;;;34.80;75.00;;;;;;5101831;28;20436;-85
2021/07/25 08:09:32;;;;;;;0.40;0.30;;;35.40;72.10;;;;;;5100621;28;20479;-84
2021/07/25 08:11:59;;;;;;;0.40;0.30;;;35.30;71.30;;;;;;5099893;28;20447;-84
2021/07/25 08:14:26;;;;;;;0.47;0.30;;;34.70;73.20;;;;;;5101003;28;20550;-83
2021/07/25 08:16:52;;;;;;;0.50;0.40;;;35.60;72.20;;;;;;5101088;28;20450;-83
2021/07/25 08:19:19;;;;;;;0.50;0.40;;;35.30;69.10;;;;;;5112660;28;20465;-83
2021/07/25 08:21:47;;;;;;;0.50;0.40;;;35.40;68.70;;;;;;5101402;28;20467;-84
2021/07/25 08:24:14;;;;;;;0.47;0.30;;;35.70;68.80;;;;;;5098746;28;21098;-84
2021/07/25 08:26:41;;;;;;;0.40;0.30;;;36.20;72.30;;;;;;5098921;28;20448;-84
2021/07/25 08:29:08;;;;;;;0.40;0.30;;;36.70;67.00;;;;;;5098400;28;20460;-85
2021/07/25 08:31:35;;;;;;;0.40;0.30;;;35.70;66.10;;;;;;5098476;28;20446;-84
2021/07/25 08:34:01;;;;;;;0.50;0.40;;;35.60;66.70;;;;;;5099110;28;20467;-84
2021/07/25 08:36:28;;;;;;;0.40;0.30;;;35.10;68.60;;;;;;5098549;28;20449;-85
2021/07/25 08:38:57;;;;;;;1.30;1.20;;;35.80;69.00;;;;;;5100713;28;20452;-84
2021/07/25 08:41:36;;;;;;;0.40;0.30;;;36.30;67.30;;;;;;5098316;28;20432;-84
2021/07/25 08:44:24;;;;;;;0.40;0.40;;;37.10;66.60;;;;;;5098976;28;20451;-83
2021/07/25 08:46:55;;;;;;;0.67;0.50;;;38.20;63.50;;;;;;5098770;28;20440;-83
2021/07/25 08:49:33;;;;;;;0.40;0.30;;;36.50;62.60;;;;;;5098738;28;20460;-84
2021/07/25 08:52:00;;;;;;;0.40;0.30;;;35.70;66.40;;;;;;5098321;28;20432;-84
2021/07/25 08:54:30;;;;;;;0.40;0.30;;;36.80;64.30;;;;;;5099233;28;20504;-85
2021/07/25 08:57:00;;;;;;;0.40;0.40;;;37.60;62.70;;;;;;5098982;28;20465;-84
2021/07/25 08:59:30;;;;;;;0.70;0.70;;;36.90;63.40;;;;;;5099990;28;20747;-85
2021/07/25 09:02:00;;;;;;;0.40;0.30;;;36.70;61.90;;;;;;5098231;28;20437;-84
2021/07/25 09:04:28;;;;;;;0.60;0.60;;;36.30;64.60;;;;;;5098586;28;20489;-85
2021/07/25 09:06:56;;;;;;;1.10;0.87;;;35.90;64.60;;;;;;5098378;28;20812;-83
2021/07/25 09:09:23;;;;;;;1.23;1.03;;;35.40;64.80;;;;;;5098446;28;20839;-81
2021/07/25 09:11:51;;;;;;;0.40;0.30;;;34.90;66.30;;;;;;5097062;28;20448;-84
2021/07/25 09:14:18;;;;;;;3.73;2.73;;;35.50;66.90;;;;;;5097052;28;20479;-83
2021/07/25 09:16:45;;;;;;;0.40;0.30;;;35.50;64.50;;;;;;5097773;28;20972;-83
2021/07/25 09:19:12;;;;;;;1.00;1.00;;;34.00;67.40;;;;;;5098953;28;20470;-84
2021/07/25 09:21:43;;;;;;;1.43;1.33;;;34.30;69.80;;;;;;5097837;28;20534;-84
2021/07/25 09:24:19;;;;;;;0.40;0.30;;;35.80;66.00;;;;;;5097533;28;20433;-85
2021/07/25 09:26:58;;;;;;;0.40;0.30;;;36.90;65.90;;;;;;5098535;28;20441;-84
2021/07/25 09:29:28;;;;;;;0.40;0.30;;;37.90;64.70;;;;;;5099118;28;20460;-84
2021/07/25 09:32:11;;;;;;;0.40;0.33;;;39.00;62.20;;;;;;5098839;28;20959;-83
2021/07/25 09:34:40;;;;;;;0.50;0.50;;;39.80;58.10;;;;;;5098871;28;20863;-81
2021/07/25 09:37:11;;;;;;;0.40;0.30;;;39.80;56.90;;;;;;5099096;28;20432;-83
2021/07/25 09:39:40;;;;;;;0.40;0.30;;;40.10;56.10;;;;;;5099232;28;20463;-85
2021/07/25 09:42:10;;;;;;;2.50;1.47;;;40.20;57.10;;;;;;5098192;28;20432;-83
2021/07/25 09:44:47;;;;;;;1.27;1.13;;;39.60;55.20;;;;;;5098462;28;20443;-84
2021/07/25 09:47:29;;;;;;;0.53;0.40;;;38.10;56.10;;;;;;5097969;28;20431;-84
2021/07/25 09:49:56;;;;;;;0.50;0.50;;;36.90;57.30;;;;;;5098867;28;20437;-84
2021/07/25 09:52:31;;;;;;;1.20;0.50;;;36.20;58.50;;;;;;5097198;28;20440;-84
2021/07/25 09:54:59;;;;;;;1.90;1.60;;;35.80;59.60;;;;;;5097078;28;20462;-84
2021/07/25 09:57:28;;;;;;;3.70;1.80;;;35.60;59.30;;;;;;5097570;28;20457;-84
2021/07/25 09:59:57;;;;;;;0.40;0.30;;;34.90;59.80;;;;;;5097782;28;20447;-84
2021/07/25 10:02:32;;;;;;;0.50;0.40;;;35.10;62.30;;;;;;5097200;28;20445;-83
2021/07/25 10:05:06;;;;;;;0.40;0.40;;;35.40;60.40;;;;;;5097865;28;20486;-84
2021/07/25 10:07:33;;;;;;;0.60;0.40;;;35.50;63.20;;;;;;5098032;28;20451;-84
2021/07/25 10:10:01;;;;;;;0.40;0.30;;;36.00;60.90;;;;;;5097262;28;20464;-83
2021/07/25 10:12:32;;;;;;;0.40;0.30;;;35.90;60.70;;;;;;5097572;28;20446;-84
2021/07/25 10:15:00;;;;;;;0.47;0.30;;;35.80;60.20;;;;;;5097928;28;20454;-84
2021/07/25 10:17:27;;;;;;;0.93;0.93;;;36.20;60.20;;;;;;5097638;28;20439;-85
2021/07/25 10:19:55;;;;;;;0.60;0.30;;;37.00;59.40;;;;;;5097380;28;20439;-84
2021/07/25 10:22:28;;;;;;;0.40;0.30;;;37.30;58.20;;;;;;5097833;28;20643;-83
2021/07/25 10:25:00;;;;;;;0.40;0.30;;;37.50;57.80;;;;;;5098782;28;20419;-82
2021/07/25 10:27:27;;;;;;;0.60;0.40;;;37.30;57.80;;;;;;5096123;28;20453;-85
2021/07/25 10:29:56;;;;;;;0.40;0.30;;;35.50;58.80;;;;;;5097416;28;20457;-85
2021/07/25 10:32:23;;;;;;;0.87;0.67;;;35.80;59.70;;;;;;5096490;28;20452;-85
2021/07/25 10:34:51;;;;;;;0.60;0.40;;;37.10;58.60;;;;;;5097101;28;20847;-84
2021/07/25 10:37:18;;;;;;;0.60;0.60;;;36.90;57.10;;;;;;5097154;28;20489;-81
2021/07/25 10:39:48;;;;;;;0.40;0.30;;;36.60;58.50;;;;;;5097269;28;20495;-83
2021/07/25 10:42:30;;;;;;;0.43;0.37;;;36.40;58.60;;;;;;5095825;28;20740;-81
2021/07/25 10:45:00;;;;;;;0.40;0.30;;;36.80;58.00;;;;;;5097902;28;20453;-85
2021/07/25 10:47:28;;;;;;;0.40;0.30;;;36.60;58.20;;;;;;5097306;28;20441;-84
2021/07/25 10:49:59;;;;;;;0.40;0.30;;;37.50;56.60;;;;;;5096393;28;20448;-85
2021/07/25 10:52:26;;;;;;;1.33;1.23;;;37.60;56.90;;;;;;5096645;28;20507;-84
2021/07/25 10:54:53;;;;;;;1.60;1.50;;;37.90;55.80;;;;;;5096896;28;20475;-85
2021/07/25 10:57:20;;;;;;;0.60;0.60;;;38.00;55.90;;;;;;5097882;28;20439;-84
2021/07/25 10:59:50;;;;;;;0.40;0.30;;;38.30;54.80;;;;;;5097081;28;20498;-83
2021/07/25 11:02:58;;;;;;;0.50;0.30;;;38.80;54.30;;;;;;5097026;28;20441;-85
2021/07/25 11:05:26;;;;;;;0.40;0.30;;;39.30;53.70;;;;;;5060345;28;20447;-84
2021/07/25 11:07:58;;;;;;;0.40;0.30;;;39.40;55.10;;;;;;5097167;28;20465;-84
2021/07/25 11:10:36;;;;;;;0.40;0.30;;;38.30;53.40;;;;;;5096776;28;20444;-84
2021/07/25 11:13:13;;;;;;;0.40;0.30;;;38.10;54.90;;;;;;5096481;28;20425;-84
2021/07/25 11:15:40;;;;;;;0.50;0.30;;;36.80;55.50;;;;;;5096533;28;20473;-84
2021/07/25 11:18:08;;;;;;;0.53;0.50;;;35.60;58.00;;;;;;5096318;28;20970;-84
2021/07/25 11:20:42;;;;;;;1.67;0.83;;;34.20;58.70;;;;;;5096711;28;20450;-84
2021/07/25 11:23:28;;;;;;;0.50;0.30;;;32.70;61.80;;;;;;5096700;28;20447;-84
2021/07/25 11:25:55;;;;;;;0.50;0.30;;;31.60;66.40;;;;;;5096454;28;20415;-83
2021/07/25 11:28:40;;;;;;;0.60;0.60;;;31.10;69.00;;;;;;5096107;28;20481;-82
2021/07/25 11:31:11;;;;;;;0.70;0.47;;;30.10;68.60;;;;;;5095948;28;20424;-84
2021/07/25 11:33:50;;;;;;;1.10;0.50;;;29.30;71.50;;;;;;5096129;28;20528;-83
2021/07/25 11:36:20;;;;;;;0.50;0.30;;;28.70;75.60;;;;;;5095971;28;20432;-83
2021/07/25 11:38:53;;;;;;;0.50;0.30;;;28.40;79.50;;;;;;5099734;28;20474;-85
2021/07/25 11:41:22;;;;;;;0.50;0.30;;;28.00;90.60;;;;;;5100294;28;20839;-83
2021/07/25 11:43:51;;;;;;;1.17;1.03;;;27.20;99.90;;;;;;5099945;28;20439;-83
2021/07/25 11:46:22;;;;;;;0.50;0.40;;;26.60;99.90;;;;;;5100332;28;20518;-84
2021/07/25 11:49:00;;;;;;;0.50;0.30;;;26.30;99.90;;;;;;5100648;28;20460;-84
2021/07/25 11:51:30;;;;;;;1.00;0.93;;;26.60;99.90;;;;;;5100459;28;20431;-83
2021/07/25 11:53:57;;;;;;;0.60;0.40;;;27.10;99.90;;;;;;5100252;28;20442;-84
2021/07/25 11:56:23;;;;;;;0.50;0.30;;;27.30;99.90;;;;;;5099994;28;20962;-83
2021/07/25 11:59:00;;;;;;;0.50;0.30;;;27.40;99.90;;;;;;5100160;28;20456;-84
2021/07/25 12:01:27;;;;;;;0.93;0.73;;;27.70;99.90;;;;;;5099851;28;20452;-84
2021/07/25 12:03:54;;;;;;;0.50;0.30;;;27.80;99.90;;;;;;5100580;28;20874;-84
2021/07/25 12:06:21;;;;;;;1.47;1.07;;;27.90;99.90;;;;;;5099573;28;20443;-84
2021/07/25 12:09:06;;;;;;;1.93;1.20;;;28.10;99.90;;;;;;5099912;28;20465;-82
2021/07/25 12:11:33;;;;;;;0.60;0.40;;;27.90;99.90;;;;;;5100472;28;20445;-84
2021/07/25 12:14:00;;;;;;;0.60;0.60;;;27.60;99.90;;;;;;5100395;28;20444;-82
2021/07/25 12:16:43;;;;;;;0.60;0.40;;;27.80;99.90;;;;;;5099761;28;20445;-83
2021/07/25 12:19:13;;;;;;;0.50;0.40;;;28.00;99.90;;;;;;5099593;28;20452;-83
2021/07/25 12:21:40;;;;;;;0.50;0.30;;;28.20;99.90;;;;;;5099820;28;20438;-83
2021/07/25 12:24:25;;;;;;;0.53;0.40;;;28.30;99.90;;;;;;5100517;28;20441;-83
2021/07/25 12:26:52;;;;;;;0.50;0.30;;;28.10;99.90;;;;;;5100563;28;20442;-84
2021/07/25 12:29:41;;;;;;;0.60;0.40;;;28.00;99.90;;;;;;5099720;28;20457;-84
2021/07/25 12:32:26;;;;;;;0.50;0.30;;;27.80;99.90;;;;;;5099343;28;20420;-83
2021/07/25 12:34:55;;;;;;;0.60;0.60;;;27.60;99.90;;;;;;5103126;28;20476;-82
2021/07/25 12:37:29;;;;;;;0.50;0.30;;;27.60;99.90;;;;;;5105542;28;20443;-84
2021/07/25 12:40:11;;;;;;;0.60;0.60;;;27.70;99.90;;;;;;5102310;28;20421;-84
2021/07/25 12:42:40;;;;;;;0.50;0.30;;;28.00;99.90;;;;;;5102164;28;20440;-85
2021/07/25 12:45:43;;;;;;;0.53;0.47;;;29.00;99.90;;;;;;5101808;28;20434;-85
2021/07/25 12:48:15;;;;;;;0.50;0.30;;;29.80;99.90;;;;;;5039976;28;21050;-85
2021/07/25 12:50:52;;;;;;;1.43;1.03;;;31.90;99.20;;;;;;5091996;28;20530;-84
2021/07/25 12:53:20;;;;;;;0.50;0.30;;;33.50;77.90;;;;;;5102804;28;20438;-83
2021/07/25 12:55:49;;;;;;;0.50;0.30;;;32.70;74.20;;;;;;5101607;28;20483;-85